Time;durP1;ratioP1;P1;durP2;ratioP2;P2;SDS_P1;SDS_P2;PMS_P1;PMS_P2;Temp;Humidity;BMP_temperature;BMP_pressure;BME280_temperature;BME280_humidity;BME280_pressure;Samples;Min_cycle;Max_cycle;Signal;HPM_P1;HPM_P2
2023/02/09 00:02:15;;;;;;;57.00;27.80;;;;;;;-7.86;54.73;102072.67;106074;1254;1003288;-41
2023/02/09 00:04:44;;;;;;;54.00;26.30;;;;;;;-7.81;54.19;102074.23;107578;1253;73901;-41
2023/02/09 00:07:12;;;;;;;44.40;23.80;;;;;;;-7.76;54.25;102072.88;107614;1252;62423;-41
2023/02/09 00:09:41;;;;;;;50.40;24.40;;;;;;;-7.72;53.73;102069.96;107569;1254;61510;-41
2023/02/09 00:14:57;;;;;;;46.50;24.90;;;;;;;-7.70;53.08;102069.91;106873;1257;1003657;-41
2023/02/09 00:17:26;;;;;;;51.80;25.50;;;;;;;-7.73;53.26;102068.55;107622;1253;72895;-41
2023/02/09 00:19:54;;;;;;;46.70;23.30;;;;;;;-7.74;54.25;102067.92;107600;1254;61874;-41
2023/02/09 00:22:23;;;;;;;38.70;19.60;;;;;;;-7.76;53.80;102065.92;107620;1254;61463;-42
2023/02/09 00:24:52;;;;;;;48.20;24.90;;;;;;;-7.90;53.87;102046.79;107624;1254;74144;-41
2023/02/09 00:27:23;;;;;;;49.90;23.50;;;;;;;-7.87;53.68;102057.34;107607;1257;69735;-40
2023/02/09 00:29:51;;;;;;;40.50;19.60;;;;;;;-7.94;53.94;102052.79;107618;1253;74317;-41
2023/02/09 00:32:20;;;;;;;50.60;23.60;;;;;;;-7.99;53.75;102050.91;107576;1254;61514;-40
2023/02/09 00:34:48;;;;;;;48.00;22.40;;;;;;;-8.00;54.28;102049.48;107622;1253;61588;-41
2023/02/09 00:37:17;;;;;;;39.10;18.90;;;;;;;-7.98;54.95;102046.23;107580;1254;74347;-40
2023/02/09 00:39:46;;;;;;;45.30;22.70;;;;;;;-7.92;54.90;102048.42;107610;1253;68574;-41
2023/02/09 00:42:14;;;;;;;45.70;22.00;;;;;;;-7.85;55.06;102044.61;107626;1254;72592;-41
2023/02/09 00:44:43;;;;;;;46.30;24.30;;;;;;;-7.78;55.10;102039.29;107569;1252;60607;-41
2023/02/09 00:47:11;;;;;;;43.80;23.40;;;;;;;-7.75;55.05;102035.88;107587;1254;61542;-41
2023/02/09 00:49:40;;;;;;;49.70;25.20;;;;;;;-7.70;54.79;102035.35;107604;1256;73884;-41
2023/02/09 00:52:09;;;;;;;48.70;27.10;;;;;;;-7.70;55.66;102032.23;107574;1256;68936;-41
2023/02/09 00:54:37;;;;;;;54.90;28.40;;;;;;;-7.75;55.99;102031.53;107552;1254;73890;-41
2023/02/09 00:57:06;;;;;;;51.60;26.10;;;;;;;-7.81;56.40;102032.42;107607;1254;60603;-40
2023/02/09 00:59:35;;;;;;;49.00;24.90;;;;;;;-7.88;56.10;102033.88;106868;1253;1002914;-41
2023/02/09 01:02:06;;;;;;;51.10;25.70;;;;;;;-8.01;55.01;102031.21;107608;1257;74223;-40
2023/02/09 01:04:36;;;;;;;57.00;28.40;;;;;;;-8.16;54.83;102032.20;107586;1254;69997;-40
2023/02/09 01:07:05;;;;;;;54.30;26.60;;;;;;;-8.28;54.93;102031.77;106835;1254;1003066;-40
2023/02/09 01:09:33;;;;;;;53.90;26.40;;;;;;;-8.32;55.39;102029.80;107568;1254;63201;-41
2023/02/09 01:12:04;;;;;;;51.50;25.90;;;;;;;-8.28;55.61;102029.21;107524;1254;62424;-41
2023/02/09 01:14:37;;;;;;;50.90;26.30;;;;;;;-8.23;55.59;102025.47;106768;1253;1002436;-40
2023/02/09 01:17:05;;;;;;;52.60;26.70;;;;;;;-8.14;55.06;102024.48;107629;1253;67513;-41
2023/02/09 01:19:35;;;;;;;49.70;25.60;;;;;;;-8.07;54.58;102023.75;107532;1254;73816;-40
2023/02/09 01:22:03;;;;;;;37.30;20.90;;;;;;;-8.03;54.14;102023.16;106850;1253;1003090;-41
2023/02/09 01:24:32;;;;;;;56.40;27.70;;;;;;;-8.02;54.70;102022.98;106838;1254;1005112;-41
2023/02/09 01:27:01;;;;;;;51.90;27.00;;;;;;;-8.03;54.53;102015.10;107542;1253;74228;-40
2023/02/09 01:29:32;;;;;;;52.00;26.00;;;;;;;-8.09;54.64;102014.17;107593;1253;69590;-41
2023/02/09 01:32:00;;;;;;;50.80;26.10;;;;;;;-8.19;54.92;102009.89;107541;1254;72868;-41
2023/02/09 01:34:30;;;;;;;48.20;23.80;;;;;;;-8.31;55.28;102003.63;107613;1254;61480;-41
2023/02/09 01:36:58;;;;;;;48.80;24.00;;;;;;;-8.46;55.77;102002.58;107537;1254;61561;-40
2023/02/09 01:39:27;;;;;;;50.90;25.80;;;;;;;-8.59;55.67;102002.09;107561;1254;74285;-41
2023/02/09 01:41:56;;;;;;;45.40;23.90;;;;;;;-8.57;55.56;102004.59;107543;1254;69981;-41
2023/02/09 01:44:24;;;;;;;46.30;23.10;;;;;;;-8.52;55.16;102000.10;107517;1254;73714;-41
2023/02/09 01:46:52;;;;;;;49.00;23.70;;;;;;;-8.47;55.20;101998.30;107613;1254;62391;-41
2023/02/09 01:49:25;;;;;;;46.20;22.20;;;;;;;-8.42;55.35;101993.94;107599;1253;61377;-41
2023/02/09 01:52:08;;;;;;;43.60;23.00;;;;;;;-8.39;55.61;101996.04;107619;1253;74250;-40
2023/02/09 01:54:45;;;;;;;43.20;22.70;;;;;;;-8.39;55.67;101998.23;107700;1254;69764;-40
2023/02/09 01:57:38;;;;;;;48.60;23.40;;;;;;;-8.36;55.73;101996.35;107552;1253;73831;-40
2023/02/09 02:00:09;;;;;;;43.10;22.40;;;;;;;-8.29;55.73;101990.38;107569;1254;61584;-41
2023/02/09 02:02:48;;;;;;;40.60;21.70;;;;;;;-8.29;55.59;101987.92;107660;1254;61188;-40
2023/02/09 02:05:17;;;;;;;45.80;22.60;;;;;;;-8.32;55.46;101982.98;107011;1254;1002910;-40
2023/02/09 02:07:57;;;;;;;46.30;22.00;;;;;;;-8.36;55.11;101980.72;107563;1253;69247;-41
2023/02/09 02:10:27;;;;;;;47.90;23.70;;;;;;;-8.42;54.95;101978.48;106827;1253;1003398;-40
2023/02/09 02:12:56;;;;;;;40.30;21.00;;;;;;;-8.54;55.22;101979.09;107562;1254;63185;-41
2023/02/09 02:15:27;;;;;;;30.20;15.80;;;;;;;-8.57;55.41;101977.83;107751;1252;61553;-40
2023/02/09 02:18:07;;;;;;;40.40;20.50;;;;;;;-8.55;55.30;101977.62;107698;1256;73260;-41
2023/02/09 02:20:46;;;;;;;40.70;19.50;;;;;;;-8.55;55.50;101976.03;107745;1254;69785;-40
2023/02/09 02:23:35;;;;;;;38.70;19.70;;;;;;;-8.55;55.43;101978.54;107651;1254;73892;-41
2023/02/09 02:26:07;;;;;;;36.30;19.40;;;;;;;-8.57;55.36;101981.05;107744;1253;60683;-42
2023/02/09 02:29:09;;;;;;;36.90;19.90;;;;;;;-8.61;55.77;101984.25;106968;1254;1003042;-40
2023/02/09 02:32:06;;;;;;;40.50;20.60;;;;;;;-8.61;55.94;101978.19;107766;1254;73075;-40
2023/02/09 02:34:43;;;;;;;39.50;19.70;;;;;;;-8.70;55.90;101976.36;106903;1254;1002861;-40
2023/02/09 02:37:36;;;;;;;39.00;20.60;;;;;;;-8.77;56.20;101974.73;107714;1253;73592;-41
2023/02/09 02:40:32;;;;;;;38.10;20.30;;;;;;;-8.88;56.02;101970.11;107533;1253;61503;-41
2023/02/09 02:43:32;;;;;;;36.50;19.60;;;;;;;-8.98;56.15;101966.45;107582;1254;61212;-41
2023/02/09 02:46:08;;;;;;;37.90;20.00;;;;;;;-8.99;56.41;101969.90;107644;1253;73000;-40
2023/02/09 02:48:42;;;;;;;35.50;19.10;;;;;;;-9.02;56.41;101967.52;107508;1259;69781;-40
2023/02/09 02:51:15;;;;;;;35.60;18.80;;;;;;;-9.03;56.79;101967.45;107696;1256;73990;-41
2023/02/09 02:53:47;;;;;;;35.40;19.90;;;;;;;-8.96;56.83;101964.14;107672;1256;62282;-40
2023/02/09 02:56:19;;;;;;;40.90;20.30;;;;;;;-8.90;56.79;101968.59;107521;1252;61180;-41
2023/02/09 02:58:48;;;;;;;39.90;20.50;;;;;;;-8.85;56.89;101970.64;107677;1254;75016;-41
2023/02/09 03:01:20;;;;;;;44.00;21.00;;;;;;;-8.80;56.99;101973.56;107593;1254;69754;-40
2023/02/09 03:03:49;;;;;;;40.90;20.60;;;;;;;-8.72;57.17;101975.34;107674;1254;74079;-40
2023/02/09 03:06:18;;;;;;;38.90;20.40;;;;;;;-8.66;57.03;101969.65;107550;1253;61563;-40
2023/02/09 03:08:54;;;;;;;42.20;22.00;;;;;;;-8.70;56.94;101953.58;107678;1253;61546;-40
2023/02/09 03:11:24;;;;;;;43.50;21.10;;;;;;;-8.64;56.96;101964.80;107690;1254;74706;-40
2023/02/09 03:14:27;;;;;;;36.90;20.80;;;;;;;-8.69;57.12;101966.79;107694;1254;69946;-41
2023/02/09 03:17:25;;;;;;;39.80;19.70;;;;;;;-8.68;57.33;101964.78;107500;1252;73678;-40
2023/02/09 03:20:01;;;;;;;36.70;20.40;;;;;;;-8.69;57.69;101958.09;107657;1256;63026;-40
2023/02/09 03:22:36;;;;;;;38.00;20.60;;;;;;;-8.75;57.68;101951.63;107714;1253;61425;-40
2023/02/09 03:25:07;;;;;;;43.80;22.30;;;;;;;-8.70;57.53;101953.98;107652;1254;74120;-40
2023/02/09 03:28:02;;;;;;;42.80;22.20;;;;;;;-8.72;57.23;101946.59;106918;1254;1002984;-41
2023/02/09 03:30:31;;;;;;;36.50;19.20;;;;;;;-8.77;57.13;101951.50;107500;1253;73865;-40
2023/02/09 03:33:02;;;;;;;43.10;21.20;;;;;;;-8.90;57.23;101947.87;107705;1253;61311;-40
2023/02/09 03:35:36;;;;;;;40.70;21.30;;;;;;;-9.10;57.38;101950.69;107764;1253;60268;-40
2023/02/09 03:38:07;;;;;;;41.40;22.30;;;;;;;-9.22;57.70;101946.36;107710;1252;74990;-40
2023/02/09 03:40:37;;;;;;;42.30;22.20;;;;;;;-9.32;57.73;101938.70;106935;1256;1003453;-41
2023/02/09 03:43:05;;;;;;;40.20;21.50;;;;;;;-9.35;57.88;101936.37;107660;1254;73827;-40
2023/02/09 03:45:34;;;;;;;39.30;21.30;;;;;;;-9.30;58.20;101940.63;107715;1254;62821;-40
2023/02/09 03:48:06;;;;;;;39.50;20.80;;;;;;;-9.29;57.88;101938.86;107681;1253;61042;-40
2023/02/09 03:50:35;;;;;;;45.10;22.20;;;;;;;-9.23;58.38;101944.23;107580;1253;74150;-40
2023/02/09 03:53:06;;;;;;;41.90;22.20;;;;;;;-9.21;58.15;101943.84;107696;1253;69901;-40
2023/02/09 03:55:36;;;;;;;39.50;21.40;;;;;;;-9.22;58.40;101944.69;107657;1254;73896;-40
2023/02/09 03:58:05;;;;;;;38.90;20.70;;;;;;;-9.21;58.32;101946.42;106878;1253;1003006;-41
2023/02/09 04:00:34;;;;;;;43.20;22.00;;;;;;;-9.23;58.10;101947.19;107655;1253;61270;-41
2023/02/09 04:03:02;;;;;;;46.00;22.90;;;;;;;-9.32;58.25;101950.63;106944;1254;1002971;-41
2023/02/09 04:05:31;;;;;;;47.30;22.00;;;;;;;-9.40;58.47;101957.98;107662;1254;69874;-40
2023/02/09 04:08:01;;;;;;;42.70;21.90;;;;;;;-9.46;58.26;101959.17;106826;1254;1002954;-40
2023/02/09 04:10:30;;;;;;;32.90;17.50;;;;;;;-9.51;58.36;101961.23;107536;1253;62860;-40
2023/02/09 04:12:58;;;;;;;47.00;22.90;;;;;;;-9.48;58.11;101960.24;107684;1254;60496;-40
2023/02/09 04:15:27;;;;;;;34.10;17.60;;;;;;;-9.48;58.17;101940.46;107686;1254;75120;-39
2023/02/09 04:17:56;;;;;;;42.40;22.70;;;;;;;-9.29;58.09;101955.67;107600;1254;69836;-40
2023/02/09 04:20:24;;;;;;;43.50;22.40;;;;;;;-9.20;58.24;101947.54;107702;1253;73828;-40
2023/02/09 04:22:52;;;;;;;43.70;22.40;;;;;;;-8.99;58.17;101961.20;107678;1254;60574;-40
2023/02/09 04:25:21;;;;;;;45.40;23.40;;;;;;;-8.93;57.82;101954.15;107665;1253;61727;-40
2023/02/09 04:27:50;;;;;;;32.40;17.40;;;;;;;-8.86;57.32;101951.36;107698;1254;75026;-40
2023/02/09 04:30:19;;;;;;;47.80;24.40;;;;;;;-8.91;56.92;101951.28;107725;1256;69926;-40
2023/02/09 04:32:47;;;;;;;44.10;23.10;;;;;;;-8.98;57.02;101950.59;106790;1253;1003217;-40
2023/02/09 04:35:16;;;;;;;42.80;21.90;;;;;;;-9.08;57.13;101947.46;107594;1256;60448;-40
2023/02/09 04:37:45;;;;;;;33.80;18.40;;;;;;;-9.19;57.19;101945.05;107684;1254;61507;-40
2023/02/09 04:40:13;;;;;;;44.60;23.40;;;;;;;-9.28;57.22;101940.70;107701;1254;75062;-41
2023/02/09 04:42:45;;;;;;;42.30;23.90;;;;;;;-9.32;57.07;101934.83;107685;1254;69709;-39
2023/02/09 04:45:14;;;;;;;44.50;22.60;;;;;;;-9.33;57.17;101934.04;107695;1256;72283;-39
2023/02/09 04:47:42;;;;;;;45.00;24.20;;;;;;;-9.32;57.26;101930.98;106948;1254;1003791;-40
2023/02/09 04:50:11;;;;;;;49.20;23.80;;;;;;;-9.28;57.16;101930.23;107003;1254;1003258;-40
2023/02/09 04:52:40;;;;;;;46.20;24.70;;;;;;;-9.27;57.06;101930.85;107717;1254;74753;-40
2023/02/09 04:55:09;;;;;;;47.50;24.10;;;;;;;-9.26;57.05;101925.19;107679;1254;69384;-39
2023/02/09 05:00:24;;;;;;;47.20;24.70;;;;;;;-9.35;57.19;101910.80;106897;1254;1015861;-39
2023/02/09 05:02:53;;;;;;;49.80;24.40;;;;;;;-9.48;57.09;101907.77;107719;1253;61447;-39
2023/02/09 05:05:21;;;;;;;43.30;22.90;;;;;;;-9.63;57.18;101907.25;106894;1254;1003210;-39
2023/02/09 05:07:50;;;;;;;34.80;18.20;;;;;;;-9.66;57.53;101903.70;106796;1254;1002825;-39
2023/02/09 05:10:19;;;;;;;43.40;22.40;;;;;;;-9.59;57.81;101908.76;107521;1253;74052;-40
2023/02/09 05:12:48;;;;;;;34.30;18.20;;;;;;;-9.45;57.70;101913.04;107507;1254;60835;-39
2023/02/09 05:15:17;;;;;;;42.80;22.10;;;;;;;-9.27;57.58;101918.20;107603;1254;61172;-40
2023/02/09 05:17:45;;;;;;;40.20;22.00;;;;;;;-9.18;57.46;101914.97;107615;1254;75164;-40
2023/02/09 05:20:14;;;;;;;46.40;23.00;;;;;;;-9.20;57.63;101913.83;107625;1254;69933;-40
2023/02/09 05:22:45;;;;;;;48.20;23.40;;;;;;;-9.26;57.88;101915.64;107656;1254;73839;-41
2023/02/09 05:25:15;;;;;;;44.80;23.70;;;;;;;-9.30;58.17;101918.02;106839;1254;1003228;-40
2023/02/09 05:27:43;;;;;;;44.50;23.20;;;;;;;-9.31;58.06;101917.88;107696;1254;61329;-40
2023/02/09 05:30:12;;;;;;;38.60;22.20;;;;;;;-9.26;58.25;101919.84;107600;1254;75056;-40
2023/02/09 05:32:40;;;;;;;41.50;22.10;;;;;;;-9.25;57.97;101917.97;107607;1254;69949;-41
2023/02/09 05:35:08;;;;;;;41.30;22.90;;;;;;;-9.21;58.17;101917.54;106782;1254;1002865;-40
2023/02/09 05:37:37;;;;;;;44.20;22.60;;;;;;;-9.12;58.51;101909.39;107548;1258;62864;-40
2023/02/09 05:40:07;;;;;;;40.80;22.00;;;;;;;-9.02;58.58;101906.91;106858;1254;1003091;-40
2023/02/09 05:42:35;;;;;;;43.70;23.00;;;;;;;-8.96;58.38;101905.31;107615;1254;74759;-40
2023/02/09 05:45:04;;;;;;;40.20;22.80;;;;;;;-8.90;58.53;101899.34;107629;1254;68180;-40
2023/02/09 05:47:34;;;;;;;44.80;23.50;;;;;;;-8.84;58.66;101904.12;107620;1254;73946;-40
2023/02/09 05:50:02;;;;;;;46.10;24.30;;;;;;;-8.78;58.56;101910.42;107627;1254;60788;-41
2023/02/09 05:52:31;;;;;;;47.50;24.10;;;;;;;-8.75;58.48;101909.46;107588;1254;61971;-41
2023/02/09 05:55:00;;;;;;;46.20;24.20;;;;;;;-8.85;58.15;101911.77;107571;1254;74791;-40
2023/02/09 05:57:29;;;;;;;49.20;25.60;;;;;;;-8.90;58.64;101912.69;107633;1254;70047;-41
2023/02/09 06:00:01;;;;;;;53.00;26.20;;;;;;;-8.91;58.58;101909.83;107599;1254;72941;-41
2023/02/09 06:02:39;;;;;;;49.60;23.80;;;;;;;-8.95;58.83;101908.19;107569;1254;62943;-40
2023/02/09 06:05:07;;;;;;;54.20;27.00;;;;;;;-8.91;58.81;101902.66;107646;1254;61236;-40
2023/02/09 06:07:36;;;;;;;51.40;26.50;;;;;;;-8.86;58.65;101903.10;107611;1254;74948;-41
2023/02/09 06:10:06;;;;;;;47.10;21.90;;;;;;;-8.77;58.56;101900.70;107599;1254;69694;-41
2023/02/09 06:12:34;;;;;;;52.40;27.20;;;;;;;-8.66;58.60;101904.79;107543;1254;73957;-40
2023/02/09 06:15:04;;;;;;;53.40;27.00;;;;;;;-8.54;58.75;101903.23;106829;1254;1003528;-41
2023/02/09 06:17:35;;;;;;;53.90;28.20;;;;;;;-8.43;58.83;101901.36;107590;1259;61547;-41
2023/02/09 06:20:05;;;;;;;44.90;22.90;;;;;;;-8.39;58.28;101905.27;107562;1254;75061;-41
2023/02/09 06:22:33;;;;;;;;;;;;;;;-8.40;58.40;101903.48;107597;1254;67801;-41
2023/02/09 06:25:03;;;;;;;52.30;26.50;;;;;;;-8.43;58.86;101904.97;107608;1257;73941;-41
2023/02/09 06:27:31;;;;;;;54.60;27.10;;;;;;;-8.41;58.90;101906.97;107554;1254;61730;-41
2023/02/09 06:30:00;;;;;;;46.50;24.10;;;;;;;-8.48;59.31;101890.20;106826;1254;1003469;-41
2023/02/09 06:32:29;;;;;;;41.10;21.50;;;;;;;-8.42;59.67;101902.53;107567;1254;75254;-41
2023/02/09 06:34:57;;;;;;;46.10;22.20;;;;;;;-8.47;60.36;101904.02;107616;1254;69977;-41
2023/02/09 06:37:26;;;;;;;43.50;23.70;;;;;;;-8.47;60.52;101902.23;107622;1254;73788;-40
2023/02/09 06:39:55;;;;;;;49.80;26.20;;;;;;;-8.39;61.08;101901.53;107640;1254;62424;-41
2023/02/09 06:42:23;;;;;;;50.40;25.00;;;;;;;-8.22;61.23;101903.76;107641;1254;61782;-41
2023/02/09 06:44:52;;;;;;;43.40;24.50;;;;;;;-7.95;61.26;101895.63;107621;1254;75067;-41
2023/02/09 06:47:20;;;;;;;48.70;25.50;;;;;;;-7.68;60.95;101898.02;107597;1254;69962;-41
2023/02/09 06:49:48;;;;;;;50.10;25.10;;;;;;;-7.50;61.22;101895.16;107656;1254;72883;-41
2023/02/09 06:52:17;;;;;;;43.60;25.00;;;;;;;-7.32;61.01;101896.77;107572;1254;60430;-41
2023/02/09 06:54:46;;;;;;;50.80;26.20;;;;;;;-7.13;60.70;101898.54;107600;1254;61718;-41
2023/02/09 06:57:14;;;;;;;44.60;25.10;;;;;;;-6.94;60.78;101901.56;106837;1253;1002997;-41
2023/02/09 06:59:42;;;;;;;47.40;25.10;;;;;;;-6.76;60.90;101902.20;107531;1254;69951;-40
2023/02/09 07:02:11;;;;;;;40.30;22.30;;;;;;;-6.61;60.89;101903.12;107617;1254;73661;-41
2023/02/09 07:04:39;;;;;;;45.10;23.10;;;;;;;-6.42;61.01;101904.89;107652;1254;61576;-40
2023/02/09 07:07:09;;;;;;;45.70;23.00;;;;;;;-6.23;61.22;101901.52;106913;1254;1003000;-41
2023/02/09 07:09:38;;;;;;;43.70;22.00;;;;;;;-6.07;61.54;101897.27;107642;1254;74017;-41
2023/02/09 07:12:12;;;;;;;47.80;24.00;;;;;;;-5.92;61.28;101896.95;107651;1256;69893;-41
2023/02/09 07:14:40;;;;;;;43.30;22.70;;;;;;;-5.80;61.32;101896.47;107613;1254;73882;-40
2023/02/09 07:17:10;;;;;;;46.60;24.10;;;;;;;-5.65;61.16;101893.91;107665;1257;61022;-40
2023/02/09 07:19:38;;;;;;;42.60;23.50;;;;;;;-5.50;61.54;101896.20;107622;1254;61549;-39
2023/02/09 07:22:07;;;;;;;50.40;26.50;;;;;;;-5.37;61.25;101900.23;107654;1254;74294;-39
2023/02/09 07:24:35;;;;;;;47.00;26.00;;;;;;;-5.25;61.37;101899.90;106812;1254;1003181;-40
2023/02/09 07:27:05;;;;;;;46.20;23.90;;;;;;;-5.21;61.53;101884.39;106772;1254;1002988;-40
2023/02/09 07:29:33;;;;;;;45.50;23.70;;;;;;;-4.99;61.64;101892.33;106117;1256;1003383;-40
2023/02/09 07:32:01;;;;;;;41.90;22.00;;;;;;;-4.82;61.74;101894.38;107583;1256;61481;-40
2023/02/09 07:34:30;;;;;;;44.90;25.00;;;;;;;-4.71;61.33;101893.33;107597;1254;74997;-40
2023/02/09 07:36:58;;;;;;;45.50;23.90;;;;;;;-4.71;61.30;101893.37;107599;1254;69931;-40
2023/02/09 07:39:28;;;;;;;42.60;22.10;;;;;;;-4.74;61.51;101889.93;106083;1254;1002971;-40
2023/02/09 07:41:57;;;;;;;50.00;27.20;;;;;;;-4.77;61.66;101887.27;107608;1254;61601;-40
2023/02/09 07:44:34;;;;;;;43.10;23.10;;;;;;;-4.80;62.07;101883.19;107579;1254;61236;-40
2023/02/09 07:47:02;;;;;;;46.90;25.30;;;;;;;-4.86;62.58;101873.06;107618;1259;75050;-40
2023/02/09 07:49:35;;;;;;;42.70;23.40;;;;;;;-4.64;62.78;101888.14;107603;1254;69980;-39
2023/02/09 07:52:04;;;;;;;43.80;22.30;;;;;;;-4.50;62.67;101887.54;107584;1254;73885;-40
2023/02/09 07:54:33;;;;;;;45.40;24.20;;;;;;;-4.42;62.88;101888.46;107608;1254;61627;-39
2023/02/09 07:57:02;;;;;;;40.80;22.50;;;;;;;-4.32;62.87;101880.88;107634;1254;61548;-39
2023/02/09 07:59:31;;;;;;;45.00;24.20;;;;;;;-4.19;62.97;101877.52;107590;1257;74961;-40
2023/02/09 08:01:59;;;;;;;47.50;25.30;;;;;;;-4.02;63.10;101870.66;106916;1254;1003085;-39
2023/02/09 08:04:28;;;;;;;48.10;24.50;;;;;;;-3.87;62.98;101872.92;106893;1253;1005553;-40
2023/02/09 08:06:57;;;;;;;50.00;27.00;;;;;;;-3.77;63.09;101882.70;107570;1254;61619;-39
2023/02/09 08:09:25;;;;;;;54.60;28.50;;;;;;;-3.71;63.04;101886.11;107592;1254;61444;-40
2023/02/09 08:12:04;;;;;;;49.70;27.10;;;;;;;-3.62;63.19;101885.13;107555;1253;74992;-40
2023/02/09 08:14:41;;;;;;;42.40;21.60;;;;;;;-3.45;63.39;101880.63;106813;1254;1003075;-39
2023/02/09 08:17:23;;;;;;;64.70;31.40;;;;;;;-3.29;63.11;101880.44;107561;1258;73857;-39
2023/02/09 08:19:59;;;;;;;62.30;33.00;;;;;;;-3.18;62.82;101883.90;107604;1257;61426;-39
2023/02/09 08:22:29;;;;;;;59.60;31.10;;;;;;;-3.08;62.61;101886.88;107634;1254;61140;-39
2023/02/09 08:24:57;;;;;;;39.90;21.30;;;;;;;-2.96;62.36;101883.35;107653;1254;74748;-39
2023/02/09 08:27:27;;;;;;;60.60;31.80;;;;;;;-2.83;62.18;101880.87;107648;1257;69932;-39
2023/02/09 08:29:57;;;;;;;56.60;31.70;;;;;;;-2.69;62.02;101880.02;107576;1254;73717;-40
2023/02/09 08:32:25;;;;;;;60.10;32.70;;;;;;;-2.56;61.89;101880.92;107596;1259;61250;-39
2023/02/09 08:34:53;;;;;;;57.40;31.90;;;;;;;-2.52;61.68;101868.08;107589;1254;60675;-39
2023/02/09 08:37:22;;;;;;;56.80;31.90;;;;;;;-2.42;61.50;101862.96;107666;1254;75033;-39
2023/02/09 08:39:51;;;;;;;57.80;30.30;;;;;;;-2.25;61.48;101878.84;107604;1254;69728;-40
2023/02/09 08:42:20;;;;;;;58.70;32.10;;;;;;;-2.19;61.24;101882.49;107624;1254;73528;-41
2023/02/09 08:44:51;;;;;;;53.80;30.20;;;;;;;-2.15;61.52;101885.39;107613;1253;61603;-40
2023/02/09 08:47:21;;;;;;;48.70;27.20;;;;;;;-2.10;61.43;101883.86;106888;1254;1003359;-40
2023/02/09 08:49:50;;;;;;;32.30;20.00;;;;;;;-2.04;61.52;101878.91;107660;1254;74861;-40
2023/02/09 08:52:19;;;;;;;46.00;29.10;;;;;;;-1.93;61.48;101879.08;107605;1256;70051;-40
2023/02/09 08:54:47;;;;;;;50.60;28.50;;;;;;;-1.94;61.30;101862.31;107559;1254;73861;-41
2023/02/09 08:57:15;;;;;;;53.30;29.70;;;;;;;-1.81;61.24;101870.85;107619;1254;61608;-41
2023/02/09 08:59:44;;;;;;;55.50;32.40;;;;;;;-1.77;61.30;101870.99;107596;1254;62271;-40
2023/02/09 09:02:13;;;;;;;51.00;28.80;;;;;;;-1.72;60.98;101872.71;107586;1254;75202;-40
2023/02/09 09:04:41;;;;;;;48.90;29.80;;;;;;;-1.65;60.86;101867.77;107621;1254;69907;-41
2023/02/09 09:07:10;;;;;;;56.40;31.00;;;;;;;-1.57;60.74;101865.58;107661;1257;72632;-40
2023/02/09 09:09:38;;;;;;;55.20;31.90;;;;;;;-1.47;60.27;101859.60;107556;1253;61613;-41
2023/02/09 09:12:07;;;;;;;51.00;30.50;;;;;;;-1.40;60.39;101856.87;107623;1254;61215;-40
2023/02/09 09:14:35;;;;;;;52.40;30.00;;;;;;;-1.29;60.34;101855.21;107560;1254;75064;-40
2023/02/09 09:17:04;;;;;;;52.20;31.60;;;;;;;-1.15;60.31;101854.98;107589;1257;69538;-40
2023/02/09 09:19:32;;;;;;;50.20;28.20;;;;;;;-0.98;59.97;101849.77;107636;1254;73764;-40
2023/02/09 09:22:02;;;;;;;45.50;27.30;;;;;;;-0.74;59.77;101842.52;107610;1257;61343;-41
2023/02/09 09:24:33;;;;;;;48.30;27.50;;;;;;;-0.50;57.96;101834.90;107604;1254;61543;-41
2023/02/09 09:27:02;;;;;;;51.60;28.60;;;;;;;-0.36;57.05;101831.15;107644;1254;73399;-40
2023/02/09 09:29:33;;;;;;;46.10;28.30;;;;;;;-0.25;56.64;101821.39;107678;1257;68762;-40
2023/02/09 09:32:01;;;;;;;46.00;27.50;;;;;;;-0.19;56.14;101817.44;107631;1257;73817;-41
2023/02/09 09:34:30;;;;;;;47.00;28.40;;;;;;;-0.19;56.17;101809.49;107666;1254;60761;-41
2023/02/09 09:36:58;;;;;;;46.20;27.50;;;;;;;-0.16;56.04;101807.64;107652;1254;61496;-41
2023/02/09 09:39:27;;;;;;;44.30;27.80;;;;;;;-0.15;55.78;101805.90;107662;1254;74442;-40
2023/02/09 09:41:58;;;;;;;50.60;28.80;;;;;;;-0.12;55.66;101801.02;107607;1257;70009;-41
2023/02/09 09:44:28;;;;;;;50.70;29.40;;;;;;;-0.07;55.48;101801.20;106872;1254;1003505;-41
2023/02/09 09:47:00;;;;;;;42.90;26.40;;;;;;;-0.02;55.00;101800.70;107617;1254;60905;-41
2023/02/09 09:49:29;;;;;;;44.80;25.60;;;;;;;0.00;54.36;101792.52;107492;1259;61516;-40
2023/02/09 09:52:12;;;;;;;47.30;25.60;;;;;;;0.09;54.70;101792.84;107629;1257;74885;-41
2023/02/09 09:54:40;;;;;;;44.10;25.70;;;;;;;0.27;53.88;101783.98;107496;1259;69944;-40
2023/02/09 09:57:28;;;;;;;46.00;26.90;;;;;;;0.35;53.80;101782.58;107323;1254;72293;-41
2023/02/09 09:59:57;;;;;;;40.00;25.10;;;;;;;0.41;53.99;101773.98;107645;1257;60313;-41
2023/02/09 10:02:28;;;;;;;42.80;24.60;;;;;;;0.56;54.19;101778.34;107497;1254;61124;-41
2023/02/09 10:05:18;;;;;;;42.00;24.80;;;;;;;0.82;54.07;101775.00;107651;1253;74511;-41
2023/02/09 10:07:54;;;;;;;42.50;22.80;;;;;;;1.07;53.40;101773.30;107553;1254;67415;-41
2023/02/09 10:10:37;;;;;;;40.60;23.20;;;;;;;1.25;52.15;101767.10;107632;1254;71541;-41
2023/02/09 10:13:24;;;;;;;42.40;25.10;;;;;;;1.32;51.70;101764.91;107675;1257;60366;-41
2023/02/09 10:15:54;;;;;;;35.50;21.90;;;;;;;1.32;51.34;101759.40;107559;1254;61589;-41
2023/02/09 10:18:25;;;;;;;22.40;13.80;;;;;;;1.32;50.98;101758.45;107654;1256;72945;-41
2023/02/09 10:21:03;;;;;;;34.40;20.40;;;;;;;1.37;51.01;101751.92;107622;1256;69900;-41
2023/02/09 10:23:48;;;;;;;41.40;23.60;;;;;;;1.44;50.52;101748.67;107640;1257;73488;-41
2023/02/09 10:26:24;;;;;;;35.10;21.10;;;;;;;1.37;49.70;101741.27;107647;1254;60462;-41
2023/02/09 10:28:55;;;;;;;34.60;20.00;;;;;;;1.23;50.28;101740.48;107605;1257;60331;-41
2023/02/09 10:31:35;;;;;;;28.90;18.70;;;;;;;1.22;50.66;101734.02;107652;1256;73745;-41
2023/02/09 10:34:10;;;;;;;34.90;22.00;;;;;;;1.27;50.35;101722.78;107650;1257;69697;-41
2023/02/09 10:37:15;;;;;;;37.70;22.00;;;;;;;1.35;50.32;101721.23;107511;1254;73673;-41
2023/02/09 10:39:43;;;;;;;35.50;21.70;;;;;;;1.50;50.26;101716.05;107352;1254;60792;-41
2023/02/09 10:42:24;;;;;;;36.60;22.50;;;;;;;1.72;49.73;101712.40;107512;1255;61373;-41
2023/02/09 10:44:54;;;;;;;35.20;22.20;;;;;;;1.99;49.40;101707.89;107443;1259;73827;-39
2023/02/09 10:47:26;;;;;;;33.80;22.00;;;;;;;2.22;48.97;101700.80;107492;1254;69139;-39
2023/02/09 10:50:09;;;;;;;34.00;20.80;;;;;;;2.42;48.32;101701.59;107385;1259;71996;-39
2023/02/09 10:55:41;;;;;;;33.60;20.40;;;;;;;2.71;47.14;101680.70;104404;1289;600401;-38
2023/02/09 10:58:13;;;;;;;27.20;18.10;;;;;;;2.94;46.62;101696.55;106727;1264;60896;-40
2023/02/09 11:00:56;;;;;;;28.10;16.80;;;;;;;3.04;45.90;101691.30;106798;1265;61530;-40
2023/02/09 11:03:25;;;;;;;30.40;18.20;;;;;;;3.12;45.13;101686.23;106718;1264;73420;-40
2023/02/09 11:06:16;;;;;;;26.40;17.40;;;;;;;3.11;45.10;101684.14;106788;1264;69728;-40
2023/02/09 11:08:58;;;;;;;28.80;17.50;;;;;;;3.10;44.99;101679.88;106647;1261;184882;-40
2023/02/09 11:11:37;;;;;;;28.60;17.20;;;;;;;3.06;45.26;101666.66;107060;1258;60786;-39
2023/02/09 11:14:16;;;;;;;26.30;15.70;;;;;;;3.07;44.28;101666.25;107192;1258;60572;-40
2023/02/09 11:16:52;;;;;;;25.60;15.90;;;;;;;2.99;43.90;101663.70;107218;1259;73398;-39
2023/02/09 11:19:32;;;;;;;27.20;16.70;;;;;;;2.93;44.05;101661.72;107225;1261;70034;-40
2023/02/09 11:22:11;;;;;;;27.50;15.90;;;;;;;2.93;44.19;101659.35;107165;1262;73794;-40
2023/02/09 11:24:40;;;;;;;28.40;18.00;;;;;;;3.01;44.67;101653.96;107218;1258;60598;-40
2023/02/09 11:27:10;;;;;;;;;;;;;;;3.13;44.69;101651.79;107232;1263;62513;-40
2023/02/09 11:29:49;;;;;;;27.00;17.20;;;;;;;3.19;44.36;101654.02;107258;1260;73982;-39
2023/02/09 11:32:29;;;;;;;28.90;17.30;;;;;;;3.27;44.41;101649.16;107160;1262;70096;-40